Airport ID:KCXP
Update Time (UTC):14/07/2020 20:51
Wind Speed (Knots):3
Wind Direction (Magnetic):70
Temperature (°C):33
Dew Point (°C):-5
Humidity (%):9
Altimeter (inHg):30.05
Density Altitude (Feet):7700
Visibility:10+
Clouds (Hundreds of feet):CLR
Present Weather:
METAR:METAR KCXP 142050Z AUTO 08004KT 10SM CLR 33/M05 A3005 RMK AO2

The data displayed is for advisory purposes only and is not to be used for flight planning or operations.